sensor_id;sensor_type;location;lat;lon;timestamp;P1;durP1;ratioP1;P2;durP2;ratioP2
68921;SDS011;55959;51.244;5.724;2022-12-29T00:02:10;1.43;;;1.00;;
68921;SDS011;55959;51.244;5.724;2022-12-29T00:04:36;1.20;;;1.10;;
68921;SDS011;55959;51.244;5.724;2022-12-29T00:07:02;1.33;;;0.77;;
68921;SDS011;55959;51.244;5.724;2022-12-29T00:09:32;0.93;;;0.90;;
68921;SDS011;55959;51.244;5.724;2022-12-29T00:11:59;0.87;;;0.80;;
68921;SDS011;55959;51.244;5.724;2022-12-29T00:14:26;0.70;;;0.70;;
68921;SDS011;55959;51.244;5.724;2022-12-29T00:17:11;1.10;;;0.90;;
68921;SDS011;55959;51.244;5.724;2022-12-29T00:19:37;1.17;;;1.07;;
68921;SDS011;55959;51.244;5.724;2022-12-29T00:22:21;1.03;;;0.90;;
68921;SDS011;55959;51.244;5.724;2022-12-29T00:25:07;1.50;;;0.90;;
68921;SDS011;55959;51.244;5.724;2022-12-29T00:27:53;0.70;;;0.70;;
68921;SDS011;55959;51.244;5.724;2022-12-29T00:30:37;0.60;;;0.60;;
68921;SDS011;55959;51.244;5.724;2022-12-29T00:33:22;0.80;;;0.80;;
68921;SDS011;55959;51.244;5.724;2022-12-29T00:38:57;0.70;;;0.50;;
68921;SDS011;55959;51.244;5.724;2022-12-29T00:41:48;1.07;;;0.60;;
68921;SDS011;55959;51.244;5.724;2022-12-29T00:44:32;0.60;;;0.60;;
68921;SDS011;55959;51.244;5.724;2022-12-29T00:46:58;0.67;;;0.50;;
68921;SDS011;55959;51.244;5.724;2022-12-29T00:49:28;0.70;;;0.60;;
68921;SDS011;55959;51.244;5.724;2022-12-29T00:54:33;1.13;;;0.60;;
68921;SDS011;55959;51.244;5.724;2022-12-29T00:57:02;1.10;;;0.50;;
68921;SDS011;55959;51.244;5.724;2022-12-29T00:59:29;0.97;;;0.60;;
68921;SDS011;55959;51.244;5.724;2022-12-29T01:01:55;0.40;;;0.40;;
68921;SDS011;55959;51.244;5.724;2022-12-29T01:04:22;1.50;;;0.53;;
68921;SDS011;55959;51.244;5.724;2022-12-29T01:06:50;1.53;;;0.60;;
68921;SDS011;55959;51.244;5.724;2022-12-29T01:09:16;0.83;;;0.60;;
68921;SDS011;55959;51.244;5.724;2022-12-29T01:12:01;0.60;;;0.50;;
68921;SDS011;55959;51.244;5.724;2022-12-29T01:14:30;1.20;;;0.70;;
68921;SDS011;55959;51.244;5.724;2022-12-29T01:16:56;1.30;;;0.53;;
68921;SDS011;55959;51.244;5.724;2022-12-29T01:19:23;1.50;;;0.60;;
68921;SDS011;55959;51.244;5.724;2022-12-29T01:21:49;0.60;;;0.47;;
68921;SDS011;55959;51.244;5.724;2022-12-29T01:24:15;0.67;;;0.60;;
68921;SDS011;55959;51.244;5.724;2022-12-29T01:26:42;2.07;;;0.47;;
68921;SDS011;55959;51.244;5.724;2022-12-29T01:29:08;2.60;;;0.67;;
68921;SDS011;55959;51.244;5.724;2022-12-29T01:31:34;0.67;;;0.40;;
68921;SDS011;55959;51.244;5.724;2022-12-29T01:34:00;2.20;;;0.50;;
68921;SDS011;55959;51.244;5.724;2022-12-29T01:36:26;0.60;;;0.60;;
68921;SDS011;55959;51.244;5.724;2022-12-29T01:38:52;0.90;;;0.70;;
68921;SDS011;55959;51.244;5.724;2022-12-29T01:41:18;1.30;;;0.40;;
68921;SDS011;55959;51.244;5.724;2022-12-29T01:43:45;1.00;;;0.70;;
68921;SDS011;55959;51.244;5.724;2022-12-29T01:51:48;1.77;;;0.60;;
68921;SDS011;55959;51.244;5.724;2022-12-29T01:54:29;1.73;;;0.60;;
68921;SDS011;55959;51.244;5.724;2022-12-29T01:57:02;2.47;;;0.93;;
68921;SDS011;55959;51.244;5.724;2022-12-29T01:59:34;1.57;;;0.63;;
68921;SDS011;55959;51.244;5.724;2022-12-29T02:02:05;3.20;;;0.60;;
68921;SDS011;55959;51.244;5.724;2022-12-29T02:04:33;1.07;;;0.50;;
68921;SDS011;55959;51.244;5.724;2022-12-29T02:07:02;0.57;;;0.50;;
68921;SDS011;55959;51.244;5.724;2022-12-29T02:09:33;1.23;;;0.50;;
68921;SDS011;55959;51.244;5.724;2022-12-29T02:11:59;1.33;;;0.77;;
68921;SDS011;55959;51.244;5.724;2022-12-29T02:14:25;1.43;;;0.70;;
68921;SDS011;55959;51.244;5.724;2022-12-29T02:19:59;2.07;;;1.03;;
68921;SDS011;55959;51.244;5.724;2022-12-29T02:26:29;3.57;;;0.80;;
68921;SDS011;55959;51.244;5.724;2022-12-29T02:29:48;2.40;;;0.90;;
68921;SDS011;55959;51.244;5.724;2022-12-29T02:46:44;2.70;;;0.70;;
68921;SDS011;55959;51.244;5.724;2022-12-29T02:54:44;2.30;;;0.70;;
68921;SDS011;55959;51.244;5.724;2022-12-29T02:57:31;2.83;;;0.80;;
68921;SDS011;55959;51.244;5.724;2022-12-29T03:00:04;1.20;;;0.83;;
68921;SDS011;55959;51.244;5.724;2022-12-29T03:02:57;0.60;;;0.50;;
68921;SDS011;55959;51.244;5.724;2022-12-29T03:11:41;1.20;;;0.60;;
68921;SDS011;55959;51.244;5.724;2022-12-29T03:14:37;1.83;;;0.70;;
68921;SDS011;55959;51.244;5.724;2022-12-29T03:17:35;1.13;;;0.70;;
68921;SDS011;55959;51.244;5.724;2022-12-29T03:20:14;1.97;;;0.60;;
68921;SDS011;55959;51.244;5.724;2022-12-29T03:22:48;1.23;;;0.47;;
68921;SDS011;55959;51.244;5.724;2022-12-29T03:25:20;1.70;;;0.70;;
68921;SDS011;55959;51.244;5.724;2022-12-29T03:28:00;0.70;;;0.30;;
68921;SDS011;55959;51.244;5.724;2022-12-29T03:30:31;1.20;;;0.60;;
68921;SDS011;55959;51.244;5.724;2022-12-29T03:33:07;1.43;;;0.47;;
68921;SDS011;55959;51.244;5.724;2022-12-29T03:35:35;1.20;;;0.40;;
68921;SDS011;55959;51.244;5.724;2022-12-29T03:38:07;0.63;;;0.50;;
68921;SDS011;55959;51.244;5.724;2022-12-29T03:41:03;1.33;;;0.47;;
68921;SDS011;55959;51.244;5.724;2022-12-29T03:43:33;0.77;;;0.50;;
68921;SDS011;55959;51.244;5.724;2022-12-29T03:45:59;0.50;;;0.37;;
68921;SDS011;55959;51.244;5.724;2022-12-29T03:48:25;1.10;;;0.43;;
68921;SDS011;55959;51.244;5.724;2022-12-29T03:50:51;0.70;;;0.37;;
68921;SDS011;55959;51.244;5.724;2022-12-29T03:53:16;1.57;;;0.30;;
68921;SDS011;55959;51.244;5.724;2022-12-29T03:55:42;1.13;;;0.40;;
68921;SDS011;55959;51.244;5.724;2022-12-29T03:58:08;0.50;;;0.30;;
68921;SDS011;55959;51.244;5.724;2022-12-29T04:00:33;2.63;;;0.50;;
68921;SDS011;55959;51.244;5.724;2022-12-29T04:02:59;0.60;;;0.30;;
68921;SDS011;55959;51.244;5.724;2022-12-29T04:05:25;0.80;;;0.30;;
68921;SDS011;55959;51.244;5.724;2022-12-29T04:07:51;1.10;;;0.40;;
68921;SDS011;55959;51.244;5.724;2022-12-29T04:10:17;1.10;;;0.30;;
68921;SDS011;55959;51.244;5.724;2022-12-29T04:12:43;0.67;;;0.50;;
68921;SDS011;55959;51.244;5.724;2022-12-29T04:15:10;1.43;;;0.40;;
68921;SDS011;55959;51.244;5.724;2022-12-29T04:17:36;0.93;;;0.37;;
68921;SDS011;55959;51.244;5.724;2022-12-29T04:20:02;1.23;;;0.20;;
68921;SDS011;55959;51.244;5.724;2022-12-29T04:22:47;1.10;;;0.20;;
68921;SDS011;55959;51.244;5.724;2022-12-29T04:25:13;0.73;;;0.30;;
68921;SDS011;55959;51.244;5.724;2022-12-29T04:27:39;1.13;;;0.20;;
68921;SDS011;55959;51.244;5.724;2022-12-29T04:30:04;0.90;;;0.30;;
68921;SDS011;55959;51.244;5.724;2022-12-29T04:32:31;0.90;;;0.40;;
68921;SDS011;55959;51.244;5.724;2022-12-29T04:34:56;0.93;;;0.30;;
68921;SDS011;55959;51.244;5.724;2022-12-29T04:37:22;1.47;;;0.33;;
68921;SDS011;55959;51.244;5.724;2022-12-29T04:39:48;0.60;;;0.40;;
68921;SDS011;55959;51.244;5.724;2022-12-29T04:42:14;1.30;;;0.50;;
68921;SDS011;55959;51.244;5.724;2022-12-29T04:44:39;0.90;;;0.40;;
68921;SDS011;55959;51.244;5.724;2022-12-29T04:47:05;0.50;;;0.30;;
68921;SDS011;55959;51.244;5.724;2022-12-29T04:49:31;1.90;;;0.70;;
68921;SDS011;55959;51.244;5.724;2022-12-29T04:51:56;1.67;;;0.50;;
68921;SDS011;55959;51.244;5.724;2022-12-29T04:54:22;1.23;;;0.40;;
68921;SDS011;55959;51.244;5.724;2022-12-29T04:56:48;1.53;;;0.50;;
68921;SDS011;55959;51.244;5.724;2022-12-29T04:59:13;2.07;;;0.60;;
68921;SDS011;55959;51.244;5.724;2022-12-29T05:01:39;1.23;;;0.33;;
68921;SDS011;55959;51.244;5.724;2022-12-29T05:04:05;1.53;;;0.50;;
68921;SDS011;55959;51.244;5.724;2022-12-29T05:06:31;1.90;;;0.50;;
68921;SDS011;55959;51.244;5.724;2022-12-29T05:08:56;1.73;;;0.50;;
68921;SDS011;55959;51.244;5.724;2022-12-29T05:11:22;1.70;;;0.60;;
68921;SDS011;55959;51.244;5.724;2022-12-29T05:13:48;0.87;;;0.60;;
68921;SDS011;55959;51.244;5.724;2022-12-29T05:16:13;2.00;;;0.80;;
68921;SDS011;55959;51.244;5.724;2022-12-29T05:18:39;4.23;;;0.93;;
68921;SDS011;55959;51.244;5.724;2022-12-29T05:21:05;1.23;;;0.47;;
68921;SDS011;55959;51.244;5.724;2022-12-29T05:23:30;2.60;;;0.97;;
68921;SDS011;55959;51.244;5.724;2022-12-29T05:25:56;2.07;;;0.70;;
68921;SDS011;55959;51.244;5.724;2022-12-29T05:28:22;1.83;;;0.60;;
68921;SDS011;55959;51.244;5.724;2022-12-29T05:30:49;1.83;;;0.60;;
68921;SDS011;55959;51.244;5.724;2022-12-29T05:33:17;1.50;;;0.70;;
68921;SDS011;55959;51.244;5.724;2022-12-29T05:35:44;2.13;;;0.70;;
68921;SDS011;55959;51.244;5.724;2022-12-29T05:38:10;2.33;;;1.03;;
68921;SDS011;55959;51.244;5.724;2022-12-29T05:40:35;2.13;;;0.73;;
68921;SDS011;55959;51.244;5.724;2022-12-29T05:43:01;2.07;;;0.63;;
68921;SDS011;55959;51.244;5.724;2022-12-29T05:45:27;2.13;;;0.93;;
68921;SDS011;55959;51.244;5.724;2022-12-29T05:47:53;2.87;;;0.87;;
68921;SDS011;55959;51.244;5.724;2022-12-29T05:50:18;1.47;;;1.00;;
68921;SDS011;55959;51.244;5.724;2022-12-29T05:52:44;1.83;;;0.70;;
68921;SDS011;55959;51.244;5.724;2022-12-29T05:55:10;3.73;;;1.40;;
68921;SDS011;55959;51.244;5.724;2022-12-29T05:57:36;1.50;;;0.70;;
68921;SDS011;55959;51.244;5.724;2022-12-29T06:00:03;2.17;;;0.80;;
68921;SDS011;55959;51.244;5.724;2022-12-29T06:02:30;2.40;;;0.80;;
68921;SDS011;55959;51.244;5.724;2022-12-29T06:04:56;1.77;;;0.80;;
68921;SDS011;55959;51.244;5.724;2022-12-29T06:07:22;3.87;;;1.07;;
68921;SDS011;55959;51.244;5.724;2022-12-29T06:09:47;2.60;;;1.10;;
68921;SDS011;55959;51.244;5.724;2022-12-29T06:12:13;2.27;;;0.87;;
68921;SDS011;55959;51.244;5.724;2022-12-29T06:14:39;3.33;;;0.90;;
68921;SDS011;55959;51.244;5.724;2022-12-29T06:17:04;4.53;;;1.37;;
68921;SDS011;55959;51.244;5.724;2022-12-29T06:19:30;2.57;;;0.83;;
68921;SDS011;55959;51.244;5.724;2022-12-29T06:21:56;2.63;;;0.80;;
68921;SDS011;55959;51.244;5.724;2022-12-29T06:24:22;2.93;;;1.00;;
68921;SDS011;55959;51.244;5.724;2022-12-29T06:26:47;2.43;;;0.70;;
68921;SDS011;55959;51.244;5.724;2022-12-29T06:29:13;2.57;;;0.83;;
68921;SDS011;55959;51.244;5.724;2022-12-29T06:31:43;2.37;;;1.20;;
68921;SDS011;55959;51.244;5.724;2022-12-29T06:34:13;1.70;;;0.77;;
68921;SDS011;55959;51.244;5.724;2022-12-29T06:36:39;3.50;;;1.10;;
68921;SDS011;55959;51.244;5.724;2022-12-29T06:39:05;2.93;;;1.00;;
68921;SDS011;55959;51.244;5.724;2022-12-29T06:41:31;3.07;;;0.77;;
68921;SDS011;55959;51.244;5.724;2022-12-29T06:43:57;3.30;;;0.97;;
68921;SDS011;55959;51.244;5.724;2022-12-29T06:46:22;2.07;;;0.80;;
68921;SDS011;55959;51.244;5.724;2022-12-29T06:48:48;1.87;;;0.83;;
68921;SDS011;55959;51.244;5.724;2022-12-29T06:51:14;3.50;;;1.07;;
68921;SDS011;55959;51.244;5.724;2022-12-29T06:53:40;3.30;;;0.90;;
68921;SDS011;55959;51.244;5.724;2022-12-29T06:56:06;2.93;;;1.07;;
68921;SDS011;55959;51.244;5.724;2022-12-29T06:58:32;2.97;;;1.20;;
68921;SDS011;55959;51.244;5.724;2022-12-29T07:00:57;4.17;;;1.07;;
68921;SDS011;55959;51.244;5.724;2022-12-29T07:03:23;3.67;;;1.10;;
68921;SDS011;55959;51.244;5.724;2022-12-29T07:05:49;4.33;;;0.90;;
68921;SDS011;55959;51.244;5.724;2022-12-29T07:08:14;3.77;;;1.10;;
68921;SDS011;55959;51.244;5.724;2022-12-29T07:10:41;4.43;;;1.17;;
68921;SDS011;55959;51.244;5.724;2022-12-29T07:13:07;3.33;;;1.33;;
68921;SDS011;55959;51.244;5.724;2022-12-29T07:15:33;4.83;;;1.00;;
68921;SDS011;55959;51.244;5.724;2022-12-29T07:17:59;5.40;;;1.53;;
68921;SDS011;55959;51.244;5.724;2022-12-29T07:20:25;4.13;;;1.00;;
68921;SDS011;55959;51.244;5.724;2022-12-29T07:22:51;4.43;;;1.10;;
68921;SDS011;55959;51.244;5.724;2022-12-29T07:25:16;4.87;;;1.30;;
68921;SDS011;55959;51.244;5.724;2022-12-29T07:27:42;4.80;;;1.33;;
68921;SDS011;55959;51.244;5.724;2022-12-29T07:30:08;3.83;;;1.40;;
68921;SDS011;55959;51.244;5.724;2022-12-29T07:32:34;3.10;;;0.90;;
68921;SDS011;55959;51.244;5.724;2022-12-29T07:35:01;4.17;;;1.10;;
68921;SDS011;55959;51.244;5.724;2022-12-29T07:37:27;4.23;;;1.20;;
68921;SDS011;55959;51.244;5.724;2022-12-29T07:39:53;4.80;;;1.70;;
68921;SDS011;55959;51.244;5.724;2022-12-29T07:42:18;2.70;;;1.17;;
68921;SDS011;55959;51.244;5.724;2022-12-29T07:44:44;4.47;;;1.20;;
68921;SDS011;55959;51.244;5.724;2022-12-29T07:47:10;5.73;;;2.37;;
68921;SDS011;55959;51.244;5.724;2022-12-29T07:49:36;3.80;;;1.40;;
68921;SDS011;55959;51.244;5.724;2022-12-29T07:52:01;2.07;;;1.20;;
68921;SDS011;55959;51.244;5.724;2022-12-29T07:54:27;3.30;;;1.13;;
68921;SDS011;55959;51.244;5.724;2022-12-29T07:56:53;5.17;;;1.60;;
68921;SDS011;55959;51.244;5.724;2022-12-29T07:59:18;4.13;;;1.40;;
68921;SDS011;55959;51.244;5.724;2022-12-29T08:01:44;2.57;;;1.00;;
68921;SDS011;55959;51.244;5.724;2022-12-29T08:04:10;4.03;;;1.20;;
68921;SDS011;55959;51.244;5.724;2022-12-29T08:06:36;4.70;;;1.33;;
68921;SDS011;55959;51.244;5.724;2022-12-29T08:09:02;5.40;;;1.40;;
68921;SDS011;55959;51.244;5.724;2022-12-29T08:11:28;4.00;;;0.90;;
68921;SDS011;55959;51.244;5.724;2022-12-29T08:13:54;3.17;;;1.17;;
68921;SDS011;55959;51.244;5.724;2022-12-29T08:16:20;3.37;;;0.90;;
68921;SDS011;55959;51.244;5.724;2022-12-29T08:18:45;3.13;;;0.70;;
68921;SDS011;55959;51.244;5.724;2022-12-29T08:21:11;5.93;;;1.10;;
68921;SDS011;55959;51.244;5.724;2022-12-29T08:23:37;4.13;;;1.57;;
68921;SDS011;55959;51.244;5.724;2022-12-29T08:26:03;4.90;;;1.10;;
68921;SDS011;55959;51.244;5.724;2022-12-29T08:28:31;3.27;;;1.13;;
68921;SDS011;55959;51.244;5.724;2022-12-29T08:30:58;5.50;;;1.30;;
68921;SDS011;55959;51.244;5.724;2022-12-29T08:33:26;2.90;;;0.90;;
68921;SDS011;55959;51.244;5.724;2022-12-29T08:35:52;5.73;;;1.20;;
68921;SDS011;55959;51.244;5.724;2022-12-29T08:38:18;4.63;;;1.40;;
68921;SDS011;55959;51.244;5.724;2022-12-29T08:40:43;3.20;;;0.83;;
68921;SDS011;55959;51.244;5.724;2022-12-29T08:43:09;2.63;;;0.93;;
68921;SDS011;55959;51.244;5.724;2022-12-29T08:45:35;3.40;;;1.07;;
68921;SDS011;55959;51.244;5.724;2022-12-29T08:48:01;5.17;;;1.40;;
68921;SDS011;55959;51.244;5.724;2022-12-29T08:50:27;5.70;;;1.17;;
68921;SDS011;55959;51.244;5.724;2022-12-29T08:52:53;3.57;;;1.00;;
68921;SDS011;55959;51.244;5.724;2022-12-29T08:55:18;5.63;;;1.57;;
68921;SDS011;55959;51.244;5.724;2022-12-29T08:57:44;5.63;;;1.20;;
68921;SDS011;55959;51.244;5.724;2022-12-29T09:00:10;4.90;;;1.37;;
68921;SDS011;55959;51.244;5.724;2022-12-29T09:02:36;4.97;;;1.50;;
68921;SDS011;55959;51.244;5.724;2022-12-29T09:05:02;6.83;;;1.00;;
68921;SDS011;55959;51.244;5.724;2022-12-29T09:07:28;4.70;;;1.30;;
68921;SDS011;55959;51.244;5.724;2022-12-29T09:09:53;8.70;;;1.73;;
68921;SDS011;55959;51.244;5.724;2022-12-29T09:12:19;3.60;;;1.17;;
68921;SDS011;55959;51.244;5.724;2022-12-29T09:14:48;2.97;;;1.13;;
68921;SDS011;55959;51.244;5.724;2022-12-29T09:17:14;4.43;;;1.60;;
68921;SDS011;55959;51.244;5.724;2022-12-29T09:19:58;4.77;;;1.40;;
68921;SDS011;55959;51.244;5.724;2022-12-29T09:22:23;6.07;;;1.17;;
68921;SDS011;55959;51.244;5.724;2022-12-29T09:24:49;3.53;;;1.10;;
68921;SDS011;55959;51.244;5.724;2022-12-29T09:27:15;4.77;;;1.17;;
68921;SDS011;55959;51.244;5.724;2022-12-29T09:29:40;6.00;;;1.20;;
68921;SDS011;55959;51.244;5.724;2022-12-29T09:32:06;2.80;;;1.30;;
68921;SDS011;55959;51.244;5.724;2022-12-29T09:34:32;5.67;;;1.30;;
68921;SDS011;55959;51.244;5.724;2022-12-29T09:36:58;3.97;;;1.27;;
68921;SDS011;55959;51.244;5.724;2022-12-29T09:39:24;6.00;;;1.50;;
68921;SDS011;55959;51.244;5.724;2022-12-29T09:41:52;4.43;;;1.30;;
68921;SDS011;55959;51.244;5.724;2022-12-29T09:47:19;4.50;;;1.40;;
68921;SDS011;55959;51.244;5.724;2022-12-29T09:49:47;5.27;;;1.43;;
68921;SDS011;55959;51.244;5.724;2022-12-29T09:53:15;5.97;;;1.53;;
68921;SDS011;55959;51.244;5.724;2022-12-29T09:55:54;4.77;;;1.37;;
68921;SDS011;55959;51.244;5.724;2022-12-29T10:01:01;5.57;;;1.70;;
68921;SDS011;55959;51.244;5.724;2022-12-29T10:03:48;4.23;;;1.33;;
68921;SDS011;55959;51.244;5.724;2022-12-29T10:06:28;5.67;;;1.57;;
68921;SDS011;55959;51.244;5.724;2022-12-29T10:12:23;6.37;;;1.67;;
68921;SDS011;55959;51.244;5.724;2022-12-29T10:17:45;6.20;;;1.60;;
68921;SDS011;55959;51.244;5.724;2022-12-29T10:20:33;9.70;;;2.20;;
68921;SDS011;55959;51.244;5.724;2022-12-29T10:23:35;5.97;;;1.70;;
68921;SDS011;55959;51.244;5.724;2022-12-29T10:26:09;6.13;;;1.57;;
68921;SDS011;55959;51.244;5.724;2022-12-29T10:29:14;4.27;;;1.30;;
68921;SDS011;55959;51.244;5.724;2022-12-29T10:34:25;4.77;;;1.30;;
68921;SDS011;55959;51.244;5.724;2022-12-29T10:37:01;5.57;;;1.60;;
68921;SDS011;55959;51.244;5.724;2022-12-29T10:40:09;6.17;;;1.90;;
68921;SDS011;55959;51.244;5.724;2022-12-29T10:42:54;4.67;;;1.07;;
68921;SDS011;55959;51.244;5.724;2022-12-29T10:45:24;5.80;;;1.53;;
68921;SDS011;55959;51.244;5.724;2022-12-29T10:48:00;6.80;;;2.00;;
68921;SDS011;55959;51.244;5.724;2022-12-29T10:50:39;4.33;;;1.63;;
68921;SDS011;55959;51.244;5.724;2022-12-29T10:53:07;5.77;;;1.43;;
68921;SDS011;55959;51.244;5.724;2022-12-29T10:55:47;5.03;;;1.57;;
68921;SDS011;55959;51.244;5.724;2022-12-29T10:58:15;5.00;;;1.60;;
68921;SDS011;55959;51.244;5.724;2022-12-29T11:00:41;8.57;;;1.80;;
68921;SDS011;55959;51.244;5.724;2022-12-29T11:06:27;9.73;;;2.10;;
68921;SDS011;55959;51.244;5.724;2022-12-29T11:09:19;6.33;;;1.80;;
68921;SDS011;55959;51.244;5.724;2022-12-29T11:11:51;7.00;;;1.93;;
68921;SDS011;55959;51.244;5.724;2022-12-29T11:14:21;5.90;;;1.43;;
68921;SDS011;55959;51.244;5.724;2022-12-29T11:17:01;5.90;;;1.33;;
68921;SDS011;55959;51.244;5.724;2022-12-29T11:19:30;5.87;;;1.87;;
68921;SDS011;55959;51.244;5.724;2022-12-29T11:22:20;5.40;;;1.57;;
68921;SDS011;55959;51.244;5.724;2022-12-29T11:24:48;3.83;;;1.20;;
68921;SDS011;55959;51.244;5.724;2022-12-29T11:27:25;8.33;;;1.70;;
68921;SDS011;55959;51.244;5.724;2022-12-29T11:29:52;4.67;;;1.40;;
68921;SDS011;55959;51.244;5.724;2022-12-29T11:32:20;6.57;;;1.80;;
68921;SDS011;55959;51.244;5.724;2022-12-29T11:34:48;6.33;;;1.77;;
68921;SDS011;55959;51.244;5.724;2022-12-29T11:37:16;3.57;;;1.40;;
68921;SDS011;55959;51.244;5.724;2022-12-29T11:39:50;5.20;;;1.40;;
68921;SDS011;55959;51.244;5.724;2022-12-29T11:42:52;5.77;;;2.00;;
68921;SDS011;55959;51.244;5.724;2022-12-29T11:45:23;5.23;;;1.60;;
68921;SDS011;55959;51.244;5.724;2022-12-29T11:47:58;5.83;;;1.50;;
68921;SDS011;55959;51.244;5.724;2022-12-29T11:50:33;5.00;;;1.50;;
68921;SDS011;55959;51.244;5.724;2022-12-29T11:55:31;3.83;;;1.33;;
68921;SDS011;55959;51.244;5.724;2022-12-29T11:57:58;5.60;;;1.63;;
68921;SDS011;55959;51.244;5.724;2022-12-29T12:00:28;2.20;;;0.90;;
68921;SDS011;55959;51.244;5.724;2022-12-29T12:03:44;6.47;;;2.07;;
68921;SDS011;55959;51.244;5.724;2022-12-29T12:05:56;3.73;;;1.40;;
68921;SDS011;55959;51.244;5.724;2022-12-29T12:08:34;3.60;;;1.63;;
68921;SDS011;55959;51.244;5.724;2022-12-29T12:11:12;4.00;;;1.17;;
68921;SDS011;55959;51.244;5.724;2022-12-29T12:13:52;6.07;;;1.50;;
68921;SDS011;55959;51.244;5.724;2022-12-29T12:16:27;5.73;;;1.70;;
68921;SDS011;55959;51.244;5.724;2022-12-29T12:21:47;5.23;;;1.53;;
68921;SDS011;55959;51.244;5.724;2022-12-29T12:24:39;5.47;;;1.43;;
68921;SDS011;55959;51.244;5.724;2022-12-29T12:29:52;5.37;;;1.73;;
68921;SDS011;55959;51.244;5.724;2022-12-29T12:35:11;4.87;;;1.40;;
68921;SDS011;55959;51.244;5.724;2022-12-29T12:37:54;7.03;;;2.00;;
68921;SDS011;55959;51.244;5.724;2022-12-29T12:41:11;4.57;;;1.73;;
68921;SDS011;55959;51.244;5.724;2022-12-29T12:43:50;5.53;;;1.60;;
68921;SDS011;55959;51.244;5.724;2022-12-29T12:52:08;6.97;;;1.73;;
68921;SDS011;55959;51.244;5.724;2022-12-29T13:00:26;4.63;;;1.40;;
68921;SDS011;55959;51.244;5.724;2022-12-29T13:15:02;5.30;;;1.27;;
68921;SDS011;55959;51.244;5.724;2022-12-29T13:18:23;4.50;;;1.63;;
68921;SDS011;55959;51.244;5.724;2022-12-29T13:26:59;4.53;;;1.13;;
68921;SDS011;55959;51.244;5.724;2022-12-29T13:40:59;5.97;;;1.37;;
68921;SDS011;55959;51.244;5.724;2022-12-29T13:43:34;4.77;;;1.90;;
68921;SDS011;55959;51.244;5.724;2022-12-29T13:46:06;4.53;;;1.60;;
68921;SDS011;55959;51.244;5.724;2022-12-29T13:48:49;6.43;;;1.60;;
68921;SDS011;55959;51.244;5.724;2022-12-29T13:51:20;3.70;;;1.43;;
68921;SDS011;55959;51.244;5.724;2022-12-29T13:54:04;4.00;;;1.53;;
68921;SDS011;55959;51.244;5.724;2022-12-29T13:59:16;4.40;;;1.73;;
68921;SDS011;55959;51.244;5.724;2022-12-29T14:02:08;3.90;;;1.77;;
68921;SDS011;55959;51.244;5.724;2022-12-29T14:05:01;6.47;;;2.37;;
68921;SDS011;55959;51.244;5.724;2022-12-29T14:07:56;3.67;;;1.97;;
68921;SDS011;55959;51.244;5.724;2022-12-29T14:11:08;4.67;;;1.67;;
68921;SDS011;55959;51.244;5.724;2022-12-29T14:13:22;5.53;;;1.97;;
68921;SDS011;55959;51.244;5.724;2022-12-29T14:15:54;4.53;;;1.90;;
68921;SDS011;55959;51.244;5.724;2022-12-29T14:18:24;4.17;;;1.47;;
68921;SDS011;55959;51.244;5.724;2022-12-29T14:20:57;4.57;;;1.97;;
68921;SDS011;55959;51.244;5.724;2022-12-29T14:28:53;5.70;;;2.30;;
68921;SDS011;55959;51.244;5.724;2022-12-29T14:39:24;3.53;;;1.60;;
68921;SDS011;55959;51.244;5.724;2022-12-29T14:42:16;4.53;;;1.73;;
68921;SDS011;55959;51.244;5.724;2022-12-29T14:44:58;4.70;;;1.53;;
68921;SDS011;55959;51.244;5.724;2022-12-29T14:47:47;7.00;;;1.93;;
68921;SDS011;55959;51.244;5.724;2022-12-29T14:50:32;6.57;;;1.47;;
68921;SDS011;55959;51.244;5.724;2022-12-29T14:53:32;2.87;;;1.30;;
68921;SDS011;55959;51.244;5.724;2022-12-29T14:56:11;5.67;;;1.70;;
68921;SDS011;55959;51.244;5.724;2022-12-29T15:01:19;4.60;;;1.70;;
68921;SDS011;55959;51.244;5.724;2022-12-29T15:03:57;5.13;;;1.60;;
68921;SDS011;55959;51.244;5.724;2022-12-29T15:06:30;4.17;;;1.20;;
68921;SDS011;55959;51.244;5.724;2022-12-29T15:09:06;5.50;;;1.13;;
68921;SDS011;55959;51.244;5.724;2022-12-29T15:11:50;5.03;;;1.47;;
68921;SDS011;55959;51.244;5.724;2022-12-29T15:17:01;4.00;;;1.30;;
68921;SDS011;55959;51.244;5.724;2022-12-29T15:19:35;6.20;;;1.43;;
68921;SDS011;55959;51.244;5.724;2022-12-29T15:22:02;3.20;;;1.10;;
68921;SDS011;55959;51.244;5.724;2022-12-29T15:24:27;4.23;;;1.70;;
68921;SDS011;55959;51.244;5.724;2022-12-29T15:26:54;6.37;;;1.80;;
68921;SDS011;55959;51.244;5.724;2022-12-29T15:29:37;7.50;;;2.00;;
68921;SDS011;55959;51.244;5.724;2022-12-29T15:32:16;4.57;;;1.43;;
68921;SDS011;55959;51.244;5.724;2022-12-29T15:34:44;3.93;;;1.73;;
68921;SDS011;55959;51.244;5.724;2022-12-29T15:37:24;5.47;;;1.87;;
68921;SDS011;55959;51.244;5.724;2022-12-29T15:40:01;5.13;;;1.53;;
68921;SDS011;55959;51.244;5.724;2022-12-29T15:45:14;5.37;;;1.40;;
68921;SDS011;55959;51.244;5.724;2022-12-29T15:47:41;5.87;;;1.70;;
68921;SDS011;55959;51.244;5.724;2022-12-29T15:52:51;2.50;;;0.87;;
68921;SDS011;55959;51.244;5.724;2022-12-29T15:55:21;1.70;;;0.80;;
68921;SDS011;55959;51.244;5.724;2022-12-29T15:57:57;1.83;;;0.90;;
68921;SDS011;55959;51.244;5.724;2022-12-29T16:00:27;2.33;;;0.90;;
68921;SDS011;55959;51.244;5.724;2022-12-29T16:02:57;1.73;;;0.87;;
68921;SDS011;55959;51.244;5.724;2022-12-29T16:05:36;3.00;;;1.13;;
68921;SDS011;55959;51.244;5.724;2022-12-29T16:08:15;1.87;;;0.77;;
68921;SDS011;55959;51.244;5.724;2022-12-29T16:10:52;3.43;;;1.03;;
68921;SDS011;55959;51.244;5.724;2022-12-29T16:13:28;4.07;;;0.90;;
68921;SDS011;55959;51.244;5.724;2022-12-29T16:16:25;3.13;;;1.00;;
68921;SDS011;55959;51.244;5.724;2022-12-29T16:18:52;2.20;;;1.00;;
68921;SDS011;55959;51.244;5.724;2022-12-29T16:21:28;3.57;;;1.10;;
68921;SDS011;55959;51.244;5.724;2022-12-29T16:24:04;3.67;;;1.33;;
68921;SDS011;55959;51.244;5.724;2022-12-29T16:26:36;3.27;;;1.43;;
68921;SDS011;55959;51.244;5.724;2022-12-29T16:29:05;3.50;;;1.30;;
68921;SDS011;55959;51.244;5.724;2022-12-29T16:31:33;1.37;;;0.60;;
68921;SDS011;55959;51.244;5.724;2022-12-29T16:37:19;5.03;;;1.23;;
68921;SDS011;55959;51.244;5.724;2022-12-29T16:39:56;2.77;;;0.83;;
68921;SDS011;55959;51.244;5.724;2022-12-29T16:42:57;6.07;;;1.33;;
68921;SDS011;55959;51.244;5.724;2022-12-29T16:48:18;3.53;;;1.27;;
68921;SDS011;55959;51.244;5.724;2022-12-29T16:50:47;1.83;;;0.63;;
68921;SDS011;55959;51.244;5.724;2022-12-29T16:53:21;3.67;;;0.80;;
68921;SDS011;55959;51.244;5.724;2022-12-29T16:56:12;2.90;;;1.00;;
68921;SDS011;55959;51.244;5.724;2022-12-29T16:58:41;1.67;;;0.90;;
68921;SDS011;55959;51.244;5.724;2022-12-29T17:01:13;2.17;;;1.10;;
68921;SDS011;55959;51.244;5.724;2022-12-29T17:03:54;1.33;;;0.67;;
68921;SDS011;55959;51.244;5.724;2022-12-29T17:06:26;2.67;;;0.70;;
68921;SDS011;55959;51.244;5.724;2022-12-29T17:08:51;2.17;;;0.80;;
68921;SDS011;55959;51.244;5.724;2022-12-29T17:14:11;4.10;;;1.20;;
68921;SDS011;55959;51.244;5.724;2022-12-29T17:16:45;3.60;;;1.40;;
68921;SDS011;55959;51.244;5.724;2022-12-29T17:19:15;3.13;;;1.17;;
68921;SDS011;55959;51.244;5.724;2022-12-29T17:21:43;2.80;;;1.40;;
68921;SDS011;55959;51.244;5.724;2022-12-29T17:24:13;4.20;;;1.30;;
68921;SDS011;55959;51.244;5.724;2022-12-29T17:26:43;1.70;;;1.00;;
68921;SDS011;55959;51.244;5.724;2022-12-29T17:29:24;3.80;;;1.47;;
68921;SDS011;55959;51.244;5.724;2022-12-29T17:32:05;2.37;;;1.30;;
68921;SDS011;55959;51.244;5.724;2022-12-29T17:34:35;2.67;;;1.17;;
68921;SDS011;55959;51.244;5.724;2022-12-29T17:37:01;2.60;;;1.10;;
68921;SDS011;55959;51.244;5.724;2022-12-29T17:39:27;5.47;;;1.40;;
68921;SDS011;55959;51.244;5.724;2022-12-29T17:41:53;1.90;;;1.23;;
68921;SDS011;55959;51.244;5.724;2022-12-29T17:44:19;3.00;;;1.10;;
68921;SDS011;55959;51.244;5.724;2022-12-29T17:46:46;2.53;;;0.90;;